Time;durP1;ratioP1;P1;durP2;ratioP2;P2;SDS_P1;SDS_P2;PMS_P1;PMS_P2;Temp;Humidity;BMP_temperature;BMP_pressure;BME280_temperature;BME280_humidity;BME280_pressure;Samples;Min_cycle;Max_cycle;Signal;HPM_P1;HPM_P2
2022/05/05 00:01:42;;;;;;;;;18.00;16.00;;;;;;;;5058697;28;45963;-74
2022/05/05 00:04:08;;;;;;;;;18.00;15.00;;;;;;;;5059526;28;46207;-74
2022/05/05 00:06:33;;;;;;;;;20.25;20.25;;;;;;;;5058968;28;45310;-74
2022/05/05 00:08:58;;;;;;;;;22.50;21.50;;;;;;;;5059787;28;45496;-74
2022/05/05 00:14:23;;;;;;;;;20.00;20.00;;;;;;;;5058756;28;45801;-74
2022/05/05 00:16:52;;;;;;;;;22.00;18.75;;;;;;;;5059634;28;45423;-74
2022/05/05 00:19:17;;;;;;;;;21.00;20.75;;;;;;;;5058707;28;45440;-74
2022/05/05 00:21:42;;;;;;;;;22.50;18.00;;;;;;;;5059420;28;45232;-74
2022/05/05 00:24:07;;;;;;;;;23.50;18.25;;;;;;;;5058579;28;45579;-74
2022/05/05 00:26:33;;;;;;;;;21.50;20.50;;;;;;;;5059653;28;45315;-74
2022/05/05 00:28:58;;;;;;;;;19.00;17.75;;;;;;;;5058649;28;45343;-74
2022/05/05 00:31:23;;;;;;;;;17.50;16.75;;;;;;;;5059332;28;45145;-72
2022/05/05 00:33:49;;;;;;;;;16.75;14.75;;;;;;;;5058479;28;45272;-72
2022/05/05 00:36:14;;;;;;;;;17.75;17.00;;;;;;;;5059387;28;45275;-72
2022/05/05 00:38:39;;;;;;;;;14.50;14.00;;;;;;;;5054144;28;45660;-74
2022/05/05 00:41:04;;;;;;;;;12.00;11.25;;;;;;;;5058844;28;45585;-75
2022/05/05 00:43:30;;;;;;;;;14.75;14.50;;;;;;;;5058243;28;46314;-75
2022/05/05 00:45:55;;;;;;;;;13.50;12.50;;;;;;;;5058581;28;45199;-72
2022/05/05 00:48:23;;;;;;;;;14.25;12.50;;;;;;;;5058567;28;45919;-75
2022/05/05 00:50:48;;;;;;;;;16.50;16.50;;;;;;;;5059004;28;45384;-74
2022/05/05 00:53:14;;;;;;;;;17.75;15.50;;;;;;;;5058223;28;46221;-73
2022/05/05 00:55:39;;;;;;;;;17.25;12.75;;;;;;;;5058983;28;46422;-74
2022/05/05 00:58:05;;;;;;;;;11.25;11.25;;;;;;;;5058482;28;45378;-74
2022/05/05 01:00:31;;;;;;;;;13.00;12.50;;;;;;;;5058933;28;45371;-74
2022/05/05 01:02:58;;;;;;;;;16.00;12.50;;;;;;;;5058134;28;45385;-74
2022/05/05 01:05:24;;;;;;;;;17.75;14.75;;;;;;;;5058510;28;45237;-75
2022/05/05 01:07:49;;;;;;;;;11.75;10.50;;;;;;;;5058365;28;45359;-74
2022/05/05 01:10:15;;;;;;;;;15.25;15.00;;;;;;;;5056595;28;46093;-75
2022/05/05 01:12:40;;;;;;;;;13.25;10.25;;;;;;;;5058100;28;45205;-75
2022/05/05 01:15:05;;;;;;;;;11.00;10.00;;;;;;;;5058854;28;45284;-73
2022/05/05 01:17:31;;;;;;;;;12.00;10.50;;;;;;;;5058061;28;45493;-74
2022/05/05 01:19:56;;;;;;;;;10.75;10.75;;;;;;;;5058587;28;45214;-74
2022/05/05 01:22:22;;;;;;;;;13.25;10.00;;;;;;;;5058053;28;45556;-74
2022/05/05 01:30:16;;;;;;;;;12.50;12.25;;;;;;;;5056634;28;45481;-74
2022/05/05 01:32:41;;;;;;;;;13.00;11.25;;;;;;;;5056278;28;48235;-75
2022/05/05 01:35:07;;;;;;;;;12.50;10.00;;;;;;;;5058640;28;45216;-74
2022/05/05 01:37:32;;;;;;;;;8.25;7.50;;;;;;;;5057878;28;45415;-75
2022/05/05 01:39:57;;;;;;;;;11.75;10.75;;;;;;;;5053859;28;45330;-75
2022/05/05 01:42:23;;;;;;;;;9.75;9.75;;;;;;;;5057792;28;45682;-75
2022/05/05 01:44:48;;;;;;;;;12.25;11.00;;;;;;;;5058238;28;45308;-75
2022/05/05 01:47:13;;;;;;;;;6.50;6.00;;;;;;;;5056569;28;45347;-74
2022/05/05 01:49:38;;;;;;;;;12.25;12.25;;;;;;;;5057986;28;45307;-75
2022/05/05 01:52:07;;;;;;;;;16.00;11.00;;;;;;;;5057691;28;45386;-74
2022/05/05 01:54:32;;;;;;;;;11.00;10.50;;;;;;;;5057552;28;45270;-74
2022/05/05 01:56:58;;;;;;;;;10.25;10.25;;;;;;;;5056782;28;45300;-74
2022/05/05 01:59:23;;;;;;;;;13.00;10.00;;;;;;;;5059228;28;45267;-74
2022/05/05 02:01:48;;;;;;;;;15.25;14.25;;;;;;;;5061623;28;46099;-74
2022/05/05 02:04:13;;;;;;;;;16.00;14.00;;;;;;;;5060841;28;45134;-74
2022/05/05 02:06:39;;;;;;;;;10.50;10.50;;;;;;;;5061707;28;45200;-75
2022/05/05 02:09:04;;;;;;;;;13.50;12.00;;;;;;;;5061040;28;45326;-74
2022/05/05 02:11:29;;;;;;;;;10.75;10.75;;;;;;;;5061296;28;45450;-74
2022/05/05 02:13:54;;;;;;;;;13.00;13.00;;;;;;;;5059436;28;45730;-74
2022/05/05 02:16:20;;;;;;;;;15.75;13.25;;;;;;;;5061698;28;45224;-74
2022/05/05 02:18:45;;;;;;;;;14.00;12.00;;;;;;;;5059381;28;46038;-74
2022/05/05 02:21:10;;;;;;;;;12.50;11.50;;;;;;;;5061516;28;45238;-74
2022/05/05 02:23:35;;;;;;;;;15.50;11.25;;;;;;;;5060867;28;45491;-74
2022/05/05 02:26:01;;;;;;;;;11.50;10.00;;;;;;;;5060219;28;45288;-74
2022/05/05 02:28:26;;;;;;;;;12.25;12.00;;;;;;;;5059361;28;45370;-74
2022/05/05 02:30:51;;;;;;;;;12.50;12.50;;;;;;;;5061102;28;45357;-73
2022/05/05 02:33:16;;;;;;;;;14.50;10.75;;;;;;;;5060643;28;45822;-74
2022/05/05 02:35:42;;;;;;;;;13.75;9.75;;;;;;;;5061322;28;45537;-74
2022/05/05 02:40:51;;;;;;;;;10.50;10.50;;;;;;;;5060892;28;45880;-74
2022/05/05 02:43:16;;;;;;;;;13.50;11.00;;;;;;;;5060111;28;45508;-74
2022/05/05 02:45:41;;;;;;;;;11.25;10.00;;;;;;;;5060956;28;45217;-74
2022/05/05 02:48:07;;;;;;;;;11.50;11.50;;;;;;;;5059019;28;46138;-74
2022/05/05 02:50:32;;;;;;;;;18.50;14.75;;;;;;;;5060591;28;47250;-75
2022/05/05 02:52:57;;;;;;;;;15.00;14.00;;;;;;;;5060416;28;45545;-74
2022/05/05 02:55:23;;;;;;;;;14.25;12.50;;;;;;;;5059340;28;45397;-75
2022/05/05 02:57:48;;;;;;;;;18.00;14.00;;;;;;;;5060128;28;45457;-74
2022/05/05 03:00:14;;;;;;;;;18.00;14.50;;;;;;;;5059153;28;45998;-74
2022/05/05 03:02:41;;;;;;;;;17.25;14.00;;;;;;;;5060144;28;45345;-74
2022/05/05 03:05:07;;;;;;;;;15.50;15.25;;;;;;;;5060646;28;45410;-74
2022/05/05 03:07:33;;;;;;;;;17.00;15.75;;;;;;;;5058398;28;47283;-74
2022/05/05 03:09:58;;;;;;;;;14.50;14.50;;;;;;;;5058116;28;45216;-74
2022/05/05 03:12:24;;;;;;;;;17.50;17.00;;;;;;;;5058505;28;45761;-74
2022/05/05 03:14:49;;;;;;;;;14.50;13.00;;;;;;;;5060619;28;45218;-74
2022/05/05 03:17:14;;;;;;;;;20.25;14.00;;;;;;;;5059770;28;45272;-74
2022/05/05 03:19:40;;;;;;;;;14.25;11.75;;;;;;;;5060030;28;45291;-75
2022/05/05 03:22:05;;;;;;;;;14.50;12.50;;;;;;;;5059840;28;45319;-74
2022/05/05 03:24:30;;;;;;;;;10.25;10.25;;;;;;;;5060232;28;45190;-74
2022/05/05 03:26:56;;;;;;;;;17.25;14.25;;;;;;;;5060214;28;45249;-74
2022/05/05 03:29:22;;;;;;;;;18.00;16.75;;;;;;;;5059334;28;46045;-74
2022/05/05 03:31:47;;;;;;;;;17.00;15.50;;;;;;;;5060400;28;45447;-74
2022/05/05 03:34:12;;;;;;;;;17.75;16.00;;;;;;;;5059825;28;45289;-74
2022/05/05 03:36:38;;;;;;;;;22.50;17.50;;;;;;;;5058934;28;46193;-74
2022/05/05 03:39:03;;;;;;;;;17.25;15.75;;;;;;;;5059548;28;45483;-74
2022/05/05 03:41:28;;;;;;;;;17.75;15.75;;;;;;;;5059908;28;45355;-72
2022/05/05 03:43:53;;;;;;;;;18.25;15.00;;;;;;;;5059223;28;45410;-74
2022/05/05 03:46:19;;;;;;;;;15.50;14.25;;;;;;;;5051063;28;45565;-74
2022/05/05 03:48:44;;;;;;;;;17.50;17.00;;;;;;;;5055822;28;46133;-74
2022/05/05 03:51:10;;;;;;;;;20.00;18.00;;;;;;;;5059974;28;45303;-74
2022/05/05 03:53:35;;;;;;;;;22.75;17.00;;;;;;;;5057687;28;45420;-74
2022/05/05 03:56:00;;;;;;;;;18.25;16.25;;;;;;;;5059671;28;45547;-74
2022/05/05 03:58:26;;;;;;;;;21.75;19.50;;;;;;;;5058963;28;46264;-74
2022/05/05 04:00:51;;;;;;;;;23.50;19.25;;;;;;;;5060056;28;45357;-74
2022/05/05 04:03:32;;;;;;;;;22.75;16.00;;;;;;;;5057374;28;45489;-74
2022/05/05 04:06:06;;;;;;;;;14.50;13.75;;;;;;;;5059936;28;45680;-74
2022/05/05 04:08:32;;;;;;;;;20.25;18.25;;;;;;;;5058735;28;46227;-74
2022/05/05 04:10:58;;;;;;;;;25.25;21.25;;;;;;;;5059648;28;45670;-74
2022/05/05 04:13:25;;;;;;;;;20.25;16.00;;;;;;;;5058626;28;45379;-74
2022/05/05 04:15:50;;;;;;;;;18.25;17.00;;;;;;;;5059581;28;45355;-74
2022/05/05 04:18:16;;;;;;;;;21.00;16.50;;;;;;;;5058530;28;45446;-73
2022/05/05 04:20:44;;;;;;;;;17.50;17.25;;;;;;;;5059072;28;45276;-73
2022/05/05 04:23:10;;;;;;;;;19.75;18.25;;;;;;;;5058626;28;45429;-74
2022/05/05 04:25:39;;;;;;;;;17.50;15.75;;;;;;;;5059232;28;45406;-74
2022/05/05 04:28:05;;;;;;;;;18.00;14.50;;;;;;;;5058210;28;45405;-75
2022/05/05 04:30:31;;;;;;;;;20.50;15.50;;;;;;;;5059263;28;45622;-73
2022/05/05 04:32:56;;;;;;;;;17.50;17.25;;;;;;;;5058680;28;45434;-73
2022/05/05 04:35:23;;;;;;;;;16.25;14.50;;;;;;;;5059060;28;45483;-72
2022/05/05 04:37:48;;;;;;;;;15.00;15.00;;;;;;;;5058569;28;46236;-73
2022/05/05 04:40:14;;;;;;;;;15.25;15.25;;;;;;;;5059135;28;45288;-73
2022/05/05 04:42:39;;;;;;;;;20.50;18.00;;;;;;;;5050469;28;45281;-73
2022/05/05 04:45:04;;;;;;;;;22.50;18.75;;;;;;;;5055939;28;45199;-73
2022/05/05 04:47:31;;;;;;;;;19.75;18.25;;;;;;;;5057543;28;45961;-73
2022/05/05 04:49:57;;;;;;;;;17.75;17.00;;;;;;;;5058346;28;45440;-72
2022/05/05 04:52:23;;;;;;;;;24.50;20.00;;;;;;;;5057909;28;45189;-74
2022/05/05 04:54:48;;;;;;;;;21.75;17.75;;;;;;;;5057456;28;46209;-74
2022/05/05 04:57:14;;;;;;;;;17.50;15.25;;;;;;;;5058013;28;45441;-73
2022/05/05 04:59:39;;;;;;;;;22.00;18.50;;;;;;;;5057279;28;45634;-74
2022/05/05 05:02:04;;;;;;;;;20.00;18.00;;;;;;;;5058617;28;45425;-73
2022/05/05 05:04:30;;;;;;;;;23.00;19.25;;;;;;;;5057808;28;45440;-74
2022/05/05 05:06:55;;;;;;;;;23.00;19.25;;;;;;;;5058151;28;45261;-74
2022/05/05 05:09:20;;;;;;;;;25.00;21.00;;;;;;;;5058019;28;45484;-73
2022/05/05 05:11:45;;;;;;;;;22.50;21.00;;;;;;;;5058867;28;45435;-73
2022/05/05 05:14:11;;;;;;;;;24.75;17.50;;;;;;;;5058100;28;45417;-73
2022/05/05 05:16:36;;;;;;;;;23.00;21.75;;;;;;;;5058713;28;46788;-73
2022/05/05 05:19:02;;;;;;;;;24.50;19.75;;;;;;;;5058215;28;45438;-73
2022/05/05 05:21:27;;;;;;;;;25.50;20.75;;;;;;;;5054552;28;45415;-72
2022/05/05 05:23:52;;;;;;;;;24.00;22.00;;;;;;;;5058460;28;45333;-73
2022/05/05 05:26:17;;;;;;;;;26.00;22.75;;;;;;;;5057054;28;47158;-74
2022/05/05 05:28:43;;;;;;;;;26.00;23.00;;;;;;;;5057940;28;45299;-73
2022/05/05 05:31:08;;;;;;;;;27.25;26.00;;;;;;;;5058455;28;45564;-74
2022/05/05 05:33:33;;;;;;;;;35.25;30.00;;;;;;;;5059029;28;46191;-73
2022/05/05 05:35:59;;;;;;;;;35.50;28.00;;;;;;;;5061921;28;46100;-73
2022/05/05 05:38:24;;;;;;;;;28.75;25.25;;;;;;;;5060278;28;45512;-73
2022/05/05 05:40:49;;;;;;;;;29.00;26.50;;;;;;;;5061073;28;45229;-73
2022/05/05 05:43:15;;;;;;;;;35.00;25.75;;;;;;;;5061542;28;45222;-74
2022/05/05 05:45:40;;;;;;;;;33.50;30.25;;;;;;;;5062250;28;46141;-73
2022/05/05 05:48:06;;;;;;;;;28.00;24.50;;;;;;;;5061563;28;45348;-73
2022/05/05 05:50:31;;;;;;;;;29.50;20.75;;;;;;;;5060878;28;45437;-73
2022/05/05 05:52:57;;;;;;;;;30.25;27.50;;;;;;;;5061424;28;45445;-74
2022/05/05 05:55:22;;;;;;;;;29.75;25.50;;;;;;;;5061767;28;45228;-73
2022/05/05 05:57:47;;;;;;;;;33.50;26.75;;;;;;;;5061458;28;45300;-73
2022/05/05 06:00:13;;;;;;;;;28.75;24.25;;;;;;;;5061643;28;45691;-74
2022/05/05 06:05:22;;;;;;;;;30.75;25.25;;;;;;;;5059802;28;45264;-74
2022/05/05 06:07:48;;;;;;;;;30.50;26.75;;;;;;;;5060870;28;45525;-76
2022/05/05 06:10:13;;;;;;;;;26.75;24.50;;;;;;;;5060220;28;45304;-73
2022/05/05 06:12:38;;;;;;;;;37.00;34.00;;;;;;;;5060923;28;45318;-74
2022/05/05 06:15:04;;;;;;;;;27.25;25.75;;;;;;;;5059958;28;47410;-75
2022/05/05 06:17:29;;;;;;;;;25.50;24.00;;;;;;;;5060936;28;45371;-74
2022/05/05 06:19:54;;;;;;;;;29.25;27.25;;;;;;;;5061407;28;45581;-74
2022/05/05 06:22:20;;;;;;;;;28.75;28.50;;;;;;;;5059255;28;46264;-71
2022/05/05 06:24:45;;;;;;;;;39.75;32.00;;;;;;;;5059617;28;48573;-72
2022/05/05 06:27:10;;;;;;;;;32.25;29.25;;;;;;;;5060631;28;45351;-73
2022/05/05 06:29:35;;;;;;;;;28.75;27.50;;;;;;;;5060973;28;45323;-73
2022/05/05 06:32:01;;;;;;;;;24.25;20.00;;;;;;;;5061147;28;45510;-73
2022/05/05 06:34:26;;;;;;;;;37.75;27.50;;;;;;;;5060222;28;45580;-73
2022/05/05 06:36:51;;;;;;;;;27.00;22.75;;;;;;;;5061325;28;45438;-73
2022/05/05 06:39:16;;;;;;;;;38.00;31.75;;;;;;;;5060414;28;45271;-73
2022/05/05 06:41:42;;;;;;;;;35.00;32.00;;;;;;;;5060197;28;45982;-73
2022/05/05 06:44:07;;;;;;;;;29.25;27.25;;;;;;;;5059112;28;46025;-73
2022/05/05 06:46:33;;;;;;;;;36.00;24.00;;;;;;;;5059655;28;45407;-73
2022/05/05 06:48:58;;;;;;;;;29.50;26.25;;;;;;;;5060188;28;45437;-74
2022/05/05 06:51:23;;;;;;;;;31.25;27.25;;;;;;;;5060865;28;45446;-73
2022/05/05 06:53:48;;;;;;;;;32.00;30.25;;;;;;;;5060123;28;45298;-74
2022/05/05 06:56:14;;;;;;;;;32.75;30.25;;;;;;;;5060573;28;45319;-73
2022/05/05 06:58:39;;;;;;;;;43.00;37.00;;;;;;;;5060032;28;45517;-73
2022/05/05 07:05:22;;;;;;;;;37.25;32.50;;;;;;;;5059690;28;45276;-74
2022/05/05 07:06:33;;;;;;;;;31.25;28.25;;;;;;;;5060725;28;45246;-73
2022/05/05 07:11:43;;;;;;;;;37.00;31.75;;;;;;;;5059769;28;45268;-73
2022/05/05 07:14:08;;;;;;;;;34.25;31.25;;;;;;;;5059492;28;46257;-73
2022/05/05 07:16:34;;;;;;;;;32.25;31.00;;;;;;;;5060668;28;45377;-73
2022/05/05 07:19:00;;;;;;;;;32.75;31.00;;;;;;;;5060018;28;45221;-73
2022/05/05 07:21:25;;;;;;;;;38.25;33.25;;;;;;;;5060238;28;45281;-72
2022/05/05 07:23:50;;;;;;;;;44.00;35.00;;;;;;;;5059697;28;47256;-71
2022/05/05 07:26:15;;;;;;;;;38.50;33.50;;;;;;;;5060088;28;45374;-71
2022/05/05 07:28:40;;;;;;;;;32.25;27.25;;;;;;;;5059705;28;45295;-72
2022/05/05 07:31:06;;;;;;;;;33.00;29.75;;;;;;;;5060217;28;45284;-72
2022/05/05 07:33:31;;;;;;;;;30.50;29.25;;;;;;;;5057433;28;47378;-72
2022/05/05 07:35:56;;;;;;;;;32.00;28.50;;;;;;;;5060225;28;46451;-71
2022/05/05 07:38:22;;;;;;;;;31.00;28.75;;;;;;;;5058298;28;45316;-72
2022/05/05 07:40:47;;;;;;;;;39.50;34.75;;;;;;;;5060389;28;45216;-71
2022/05/05 07:43:12;;;;;;;;;41.50;32.50;;;;;;;;5059179;28;45442;-72
2022/05/05 07:45:37;;;;;;;;;32.00;28.25;;;;;;;;5060016;28;45484;-71
2022/05/05 07:48:03;;;;;;;;;26.75;26.75;;;;;;;;5059280;28;45516;-72
2022/05/05 07:50:28;;;;;;;;;28.75;26.50;;;;;;;;5059764;28;45416;-72
2022/05/05 07:52:53;;;;;;;;;31.50;26.00;;;;;;;;5059132;28;46096;-72
2022/05/05 07:55:19;;;;;;;;;30.75;28.75;;;;;;;;5059656;28;45351;-72
2022/05/05 07:57:45;;;;;;;;;28.50;26.25;;;;;;;;5058371;28;45409;-71
2022/05/05 08:00:11;;;;;;;;;31.00;29.75;;;;;;;;5056560;28;45276;-72
2022/05/05 08:02:37;;;;;;;;;30.75;28.50;;;;;;;;5057182;28;46311;-72
2022/05/05 08:05:02;;;;;;;;;28.00;28.00;;;;;;;;5058388;28;45730;-72
2022/05/05 08:07:28;;;;;;;;;34.00;29.50;;;;;;;;5058754;28;45669;-72
2022/05/05 08:09:53;;;;;;;;;27.50;27.25;;;;;;;;5059540;28;45371;-72
2022/05/05 08:12:18;;;;;;;;;33.75;30.75;;;;;;;;5058461;28;46299;-72
2022/05/05 08:14:44;;;;;;;;;27.50;26.50;;;;;;;;5059282;28;45300;-72
2022/05/05 08:17:09;;;;;;;;;30.25;25.50;;;;;;;;5059546;28;45373;-72
2022/05/05 08:19:34;;;;;;;;;26.75;24.75;;;;;;;;5059151;28;45399;-72
2022/05/05 08:21:59;;;;;;;;;31.25;25.00;;;;;;;;5060080;28;45527;-72
2022/05/05 08:29:53;;;;;;;;;32.00;24.00;;;;;;;;5057777;28;45490;-72
2022/05/05 08:32:18;;;;;;;;;24.00;22.67;;;;;;;;5058215;28;45962;-71
2022/05/05 08:34:44;;;;;;;;;27.00;26.00;;;;;;;;5058981;28;45252;-71
2022/05/05 08:37:09;;;;;;;;;27.33;26.00;;;;;;;;5059119;28;45243;-71
2022/05/05 08:39:34;;;;;;;;;24.00;22.00;;;;;;;;5059012;28;45537;-71
2022/05/05 08:41:59;;;;;;;;;21.00;18.00;;;;;;;;5058887;28;45215;-71
2022/05/05 08:44:25;;;;;;;;;19.67;19.67;;;;;;;;5058241;28;45364;-71
2022/05/05 08:46:53;;;;;;;;;19.67;18.67;;;;;;;;5059387;28;45303;-73
2022/05/05 08:49:20;;;;;;;;;26.00;22.00;;;;;;;;5058335;28;45466;-72
2022/05/05 08:51:46;;;;;;;;;21.67;20.33;;;;;;;;5058851;28;45327;-73
2022/05/05 08:54:16;;;;;;;;;14.33;14.33;;;;;;;;5058084;28;45373;-72
2022/05/05 08:56:41;;;;;;;;;17.33;15.67;;;;;;;;5054493;28;45248;-73
2022/05/05 08:59:07;;;;;;;;;17.00;17.00;;;;;;;;5056594;28;45474;-73
2022/05/05 09:01:38;;;;;;;;;22.67;19.33;;;;;;;;5058923;28;46794;-72
2022/05/05 09:04:03;;;;;;;;;21.67;19.33;;;;;;;;5057848;28;45238;-72
2022/05/05 09:06:49;;;;;;;;;20.67;20.67;;;;;;;;5058820;28;45552;-72
2022/05/05 09:09:27;;;;;;;;;22.33;18.00;;;;;;;;5057976;28;45348;-72
2022/05/05 09:12:11;;;;;;;;;18.67;18.67;;;;;;;;5058770;28;45321;-72
2022/05/05 09:14:50;;;;;;;;;18.33;18.33;;;;;;;;5058114;28;45405;-73
2022/05/05 09:17:15;;;;;;;;;22.33;19.00;;;;;;;;5058265;28;45586;-72
2022/05/05 09:19:42;;;;;;;;;15.00;13.00;;;;;;;;5058370;28;45609;-73
2022/05/05 09:22:08;;;;;;;;;14.33;13.00;;;;;;;;5058362;28;45525;-73
2022/05/05 09:24:36;;;;;;;;;13.33;12.33;;;;;;;;5058269;28;45177;-72
2022/05/05 09:27:17;;;;;;;;;11.00;10.33;;;;;;;;5057280;28;45237;-73
2022/05/05 09:29:54;;;;;;;;;11.00;11.00;;;;;;;;5052145;28;45487;-72
2022/05/05 09:32:19;;;;;;;;;11.00;9.67;;;;;;;;5045217;28;45398;-73
2022/05/05 09:34:44;;;;;;;;;11.00;10.00;;;;;;;;5058469;28;45279;-72
2022/05/05 09:37:19;;;;;;;;;12.00;12.00;;;;;;;;5045986;28;45268;-72
2022/05/05 09:39:44;;;;;;;;;16.00;12.00;;;;;;;;5058286;28;45633;-71
2022/05/05 09:42:10;;;;;;;;;8.00;8.00;;;;;;;;5057620;28;46471;-72
2022/05/05 09:44:43;;;;;;;;;7.33;6.00;;;;;;;;5057741;28;45375;-72
2022/05/05 09:47:15;;;;;;;;;11.33;9.67;;;;;;;;5057707;28;45268;-72
2022/05/05 09:49:41;;;;;;;;;11.67;10.67;;;;;;;;5056730;28;45528;-72
2022/05/05 09:57:41;;;;;;;;;8.67;7.00;;;;;;;;5056077;28;45501;-72
2022/05/05 10:00:44;;;;;;;;;9.00;9.00;;;;;;;;5054694;28;45201;-73
2022/05/05 10:05:56;;;;;;;;;7.67;6.67;;;;;;;;5056215;28;45408;-72
2022/05/05 10:08:48;;;;;;;;;8.67;8.67;;;;;;;;5056926;28;45385;-71
2022/05/05 10:11:19;;;;;;;;;9.00;9.00;;;;;;;;5053981;28;45307;-72
2022/05/05 10:13:45;;;;;;;;;10.67;9.33;;;;;;;;5085150;27;46281;-72
2022/05/05 10:16:10;;;;;;;;;7.33;6.33;;;;;;;;5057727;28;45317;-73
2022/05/05 10:18:38;;;;;;;;;8.00;8.00;;;;;;;;5052790;28;45377;-72
2022/05/05 10:21:07;;;;;;;;;6.00;6.00;;;;;;;;5056658;28;45261;-72
2022/05/05 10:23:33;;;;;;;;;9.00;9.00;;;;;;;;5058888;28;47210;-73
2022/05/05 10:25:58;;;;;;;;;7.00;7.00;;;;;;;;5061208;28;45279;-72
2022/05/05 10:28:38;;;;;;;;;8.67;8.00;;;;;;;;5060730;28;47111;-72
2022/05/05 10:31:04;;;;;;;;;8.00;8.00;;;;;;;;5059538;28;45846;-73
2022/05/05 10:33:52;;;;;;;;;11.67;10.67;;;;;;;;5059843;28;45265;-74
2022/05/05 10:36:27;;;;;;;;;9.33;8.00;;;;;;;;5054636;28;45288;-70
2022/05/05 10:38:52;;;;;;;;;4.00;4.00;;;;;;;;5060701;28;45276;-72
2022/05/05 10:41:30;;;;;;;;;6.00;5.00;;;;;;;;5060515;28;45213;-72
2022/05/05 10:44:14;;;;;;;;;6.00;6.00;;;;;;;;5060013;28;45617;-73
2022/05/05 10:46:55;;;;;;;;;4.67;4.67;;;;;;;;5061249;28;45451;-72
2022/05/05 10:49:30;;;;;;;;;12.00;10.33;;;;;;;;5061140;28;45386;-73
2022/05/05 10:52:07;;;;;;;;;6.33;5.67;;;;;;;;5060091;28;45242;-74
2022/05/05 10:54:33;;;;;;;;;4.33;4.33;;;;;;;;5060476;28;45221;-73
2022/05/05 10:57:18;;;;;;;;;6.67;6.67;;;;;;;;5060765;28;45290;-73
2022/05/05 11:00:02;;;;;;;;;7.00;7.00;;;;;;;;5091839;27;45488;-73
2022/05/05 11:02:27;;;;;;;;;7.33;6.00;;;;;;;;5060193;28;46217;-73
2022/05/05 11:05:12;;;;;;;;;4.00;4.00;;;;;;;;5060456;28;45288;-74
2022/05/05 11:07:38;;;;;;;;;7.67;7.33;;;;;;;;5058418;28;45827;-74
2022/05/05 11:10:04;;;;;;;;;6.33;5.67;;;;;;;;5059511;28;45359;-73
2022/05/05 11:12:34;;;;;;;;;5.33;5.00;;;;;;;;5061171;28;45466;-73
2022/05/05 11:23:30;;;;;;;;;6.67;6.00;;;;;;;;5059470;28;45198;-73
2022/05/05 11:25:55;;;;;;;;;5.00;5.00;;;;;;;;5058305;28;46359;-73
2022/05/05 11:28:21;;;;;;;;;6.00;6.00;;;;;;;;5059022;28;45323;-73
2022/05/05 11:30:46;;;;;;;;;7.00;5.33;;;;;;;;5059852;28;45330;-74
2022/05/05 11:33:13;;;;;;;;;7.00;6.00;;;;;;;;5064280;28;46003;-73
2022/05/05 11:35:38;;;;;;;;;4.00;4.00;;;;;;;;5054870;28;46169;-73
2022/05/05 11:38:08;;;;;;;;;4.00;3.67;;;;;;;;5064079;28;45276;-74
2022/05/05 11:40:36;;;;;;;;;5.00;5.00;;;;;;;;5061195;28;45298;-73
2022/05/05 11:45:45;;;;;;;;;3.00;3.00;;;;;;;;5060074;28;45446;-74
2022/05/05 11:48:17;;;;;;;;;5.33;4.00;;;;;;;;5063680;28;45265;-74
2022/05/05 11:50:43;;;;;;;;;3.00;3.00;;;;;;;;5059452;28;45552;-74
2022/05/05 11:53:13;;;;;;;;;6.00;4.00;;;;;;;;5063049;28;47075;-73
2022/05/05 11:55:39;;;;;;;;;2.67;2.33;;;;;;;;5059452;28;45348;-73
2022/05/05 11:58:13;;;;;;;;;4.67;4.67;;;;;;;;5063661;28;45497;-73
2022/05/05 12:03:22;;;;;;;;;4.00;4.00;;;;;;;;5060247;28;45379;-72
2022/05/05 12:05:52;;;;;;;;;7.00;5.67;;;;;;;;5062871;28;45397;-74
2022/05/05 12:08:19;;;;;;;;;4.00;3.00;;;;;;;;5060180;28;45295;-72
2022/05/05 12:10:44;;;;;;;;;5.67;4.33;;;;;;;;5060402;28;45462;-72
2022/05/05 12:13:09;;;;;;;;;4.67;3.00;;;;;;;;5059800;28;45371;-73
2022/05/05 12:15:35;;;;;;;;;5.67;5.00;;;;;;;;5068414;28;45358;-74
2022/05/05 12:18:01;;;;;;;;;4.67;3.33;;;;;;;;5060034;28;45367;-73
2022/05/05 12:20:28;;;;;;;;;3.00;3.00;;;;;;;;5067148;28;45307;-72
2022/05/05 12:22:55;;;;;;;;;2.33;2.33;;;;;;;;5059579;28;45327;-73
2022/05/05 12:25:21;;;;;;;;;4.33;4.33;;;;;;;;5065144;28;47046;-74
2022/05/05 12:28:01;;;;;;;;;6.33;4.00;;;;;;;;5060836;28;45453;-74
2022/05/05 12:30:32;;;;;;;;;3.00;3.00;;;;;;;;5063335;28;45383;-74
2022/05/05 12:32:57;;;;;;;;;3.67;3.67;;;;;;;;5061967;28;45263;-73
2022/05/05 12:35:30;;;;;;;;;4.00;4.00;;;;;;;;5059931;28;47353;-74
2022/05/05 12:37:56;;;;;;;;;2.00;2.00;;;;;;;;5061898;28;45625;-74
2022/05/05 12:40:22;;;;;;;;;2.67;2.67;;;;;;;;5061355;28;45310;-74
2022/05/05 12:42:48;;;;;;;;;3.67;3.00;;;;;;;;5059903;28;45353;-74
2022/05/05 12:45:13;;;;;;;;;4.33;3.33;;;;;;;;5062503;27;45291;-74
2022/05/05 12:47:40;;;;;;;;;3.33;3.33;;;;;;;;5059868;28;45295;-75
2022/05/05 12:50:24;;;;;;;;;3.33;3.33;;;;;;;;5061825;28;45386;-74
2022/05/05 13:01:01;;;;;;;;;5.00;2.00;;;;;;;;5062336;28;45606;-74
2022/05/05 13:03:27;;;;;;;;;4.33;4.00;;;;;;;;5060851;28;45477;-75
2022/05/05 13:05:52;;;;;;;;;4.00;4.00;;;;;;;;5060828;28;45300;-74
2022/05/05 13:08:17;;;;;;;;;2.33;2.33;;;;;;;;5059889;28;45366;-75
2022/05/05 13:10:42;;;;;;;;;3.67;2.00;;;;;;;;5060009;28;45351;-73
2022/05/05 13:13:08;;;;;;;;;2.67;2.67;;;;;;;;5058975;28;45224;-73
2022/05/05 13:15:33;;;;;;;;;4.00;4.00;;;;;;;;5067628;28;46048;-74
2022/05/05 13:17:58;;;;;;;;;4.33;3.00;;;;;;;;5059613;28;45232;-74
2022/05/05 13:20:24;;;;;;;;;4.00;3.00;;;;;;;;5066725;28;45235;-74
2022/05/05 13:22:49;;;;;;;;;2.00;2.00;;;;;;;;5059144;28;45532;-75
2022/05/05 13:25:14;;;;;;;;;5.00;3.67;;;;;;;;5057929;28;45454;-74
2022/05/05 13:27:39;;;;;;;;;4.00;3.00;;;;;;;;5058051;28;45405;-74
2022/05/05 13:30:06;;;;;;;;;2.67;2.00;;;;;;;;5062869;28;45369;-75
2022/05/05 13:32:31;;;;;;;;;3.00;3.00;;;;;;;;5058932;28;45740;-75
2022/05/05 13:34:56;;;;;;;;;3.33;3.33;;;;;;;;5064589;28;45285;-73
2022/05/05 13:37:21;;;;;;;;;4.00;4.00;;;;;;;;5058526;28;45296;-73
2022/05/05 13:39:47;;;;;;;;;3.00;3.00;;;;;;;;5063581;28;45386;-73
2022/05/05 13:42:13;;;;;;;;;3.33;2.00;;;;;;;;5057328;28;45268;-73
2022/05/05 13:44:38;;;;;;;;;2.00;2.00;;;;;;;;5062936;28;45367;-74
2022/05/05 13:47:03;;;;;;;;;3.67;2.33;;;;;;;;5058090;28;45372;-74
2022/05/05 13:49:28;;;;;;;;;5.33;3.00;;;;;;;;5063602;28;45340;-75
2022/05/05 13:51:53;;;;;;;;;1.67;1.00;;;;;;;;5057968;28;45264;-74
2022/05/05 13:54:19;;;;;;;;;3.00;3.00;;;;;;;;5062776;28;46100;-74
2022/05/05 13:56:44;;;;;;;;;4.00;4.00;;;;;;;;5061492;28;45188;-74
2022/05/05 13:59:09;;;;;;;;;3.00;3.00;;;;;;;;5062918;28;45331;-75
2022/05/05 14:01:36;;;;;;;;;3.67;2.67;;;;;;;;5064973;28;45466;-74
2022/05/05 14:04:02;;;;;;;;;4.00;4.00;;;;;;;;5062297;28;47343;-75
2022/05/05 14:06:29;;;;;;;;;2.00;2.00;;;;;;;;5063420;28;45225;-74
2022/05/05 14:14:22;;;;;;;;;3.33;3.33;;;;;;;;5070871;28;45282;-74
2022/05/05 14:16:47;;;;;;;;;3.33;3.33;;;;;;;;5061677;28;45422;-74
2022/05/05 14:19:12;;;;;;;;;3.33;3.33;;;;;;;;5070293;28;45478;-74
2022/05/05 14:21:37;;;;;;;;;3.67;3.67;;;;;;;;5061276;28;45250;-74
2022/05/05 14:24:03;;;;;;;;;3.00;3.00;;;;;;;;5068745;28;46947;-75
2022/05/05 14:26:28;;;;;;;;;3.00;3.00;;;;;;;;5061337;28;45276;-75
2022/05/05 14:28:53;;;;;;;;;3.00;3.00;;;;;;;;5068656;28;45291;-74
2022/05/05 14:31:19;;;;;;;;;2.00;2.00;;;;;;;;5059778;28;46189;-74
2022/05/05 14:33:44;;;;;;;;;3.00;3.00;;;;;;;;5066177;28;46325;-74
2022/05/05 14:36:09;;;;;;;;;3.67;3.67;;;;;;;;5061438;28;45304;-74
2022/05/05 14:38:34;;;;;;;;;3.33;2.00;;;;;;;;5066917;28;45346;-74
2022/05/05 14:41:00;;;;;;;;;3.33;3.33;;;;;;;;5061021;28;45643;-73
2022/05/05 14:43:25;;;;;;;;;3.67;2.00;;;;;;;;5066093;28;45518;-74
2022/05/05 14:45:50;;;;;;;;;3.67;2.00;;;;;;;;5061262;28;45351;-74
2022/05/05 14:48:16;;;;;;;;;2.00;2.00;;;;;;;;5066378;28;45308;-74
2022/05/05 14:50:41;;;;;;;;;3.00;2.00;;;;;;;;5060802;28;46063;-74
2022/05/05 14:53:06;;;;;;;;;3.00;3.00;;;;;;;;5064836;28;45472;-74
2022/05/05 14:55:31;;;;;;;;;2.00;2.00;;;;;;;;5065432;28;45394;-74
2022/05/05 14:57:58;;;;;;;;;4.00;2.67;;;;;;;;5060570;28;45437;-74
2022/05/05 15:00:23;;;;;;;;;2.00;2.00;;;;;;;;5064475;28;45463;-74
2022/05/05 15:02:48;;;;;;;;;3.67;3.67;;;;;;;;5062154;28;45405;-74
2022/05/05 15:05:16;;;;;;;;;3.00;2.33;;;;;;;;5068804;28;45755;-74
2022/05/05 15:07:41;;;;;;;;;2.33;2.33;;;;;;;;5060521;28;45391;-74
2022/05/05 15:10:07;;;;;;;;;4.00;2.67;;;;;;;;5062307;28;45685;-74
2022/05/05 15:12:32;;;;;;;;;2.67;2.67;;;;;;;;5062643;28;45646;-74
2022/05/05 15:14:57;;;;;;;;;1.00;1.00;;;;;;;;5069508;28;45293;-74
2022/05/05 15:17:23;;;;;;;;;4.00;2.00;;;;;;;;5061301;28;45175;-74
2022/05/05 15:19:48;;;;;;;;;2.00;1.67;;;;;;;;5065565;28;45522;-74
2022/05/05 15:22:13;;;;;;;;;2.00;2.00;;;;;;;;5060323;28;46248;-74
2022/05/05 15:24:39;;;;;;;;;2.00;2.00;;;;;;;;5072317;28;45351;-74